Time;durP1;ratioP1;P1;durP2;ratioP2;P2;SDS_P1;SDS_P2;PMS_P1;PMS_P2;Temp;Humidity;BMP_temperature;BMP_pressure;BME280_temperature;BME280_humidity;BME280_pressure;Samples;Min_cycle;Max_cycle;Signal;HPM_P1;HPM_P2
2023/05/22 00:00:27;;;;;;;4.70;2.93;;;;;;;;;;5011104;28;20196;-62
2023/05/22 00:02:53;;;;;;;5.37;2.57;;;;;;;;;;5022114;28;20188;-62
2023/05/22 00:05:20;;;;;;;8.47;2.97;;;;;;;;;;5031476;28;20215;-62
2023/05/22 00:07:47;;;;;;;7.90;3.00;;;;;;;;;;5030787;28;20184;-62
2023/05/22 00:10:13;;;;;;;4.43;2.57;;;;;;;;;;5031093;28;20187;-62
2023/05/22 00:12:40;;;;;;;6.43;3.07;;;;;;;;;;5030603;28;20172;-62
2023/05/22 00:15:07;;;;;;;5.90;2.83;;;;;;;;;;5030427;28;20219;-62
2023/05/22 00:17:34;;;;;;;3.83;2.73;;;;;;;;;;5011243;28;20242;-62
2023/05/22 00:20:03;;;;;;;9.20;3.53;;;;;;;;;;5010868;28;20611;-63
2023/05/22 00:22:30;;;;;;;7.40;2.90;;;;;;;;;;5010804;28;20271;-62
2023/05/22 00:24:57;;;;;;;8.80;3.23;;;;;;;;;;5010930;28;20647;-62
2023/05/22 00:27:23;;;;;;;7.87;2.97;;;;;;;;;;5010499;28;20196;-63
2023/05/22 00:29:50;;;;;;;6.07;3.17;;;;;;;;;;4992790;28;20200;-62
2023/05/22 00:32:17;;;;;;;11.77;3.70;;;;;;;;;;5011138;28;20227;-62
2023/05/22 00:34:44;;;;;;;5.97;3.20;;;;;;;;;;5010353;28;20250;-62
2023/05/22 00:37:11;;;;;;;9.90;3.67;;;;;;;;;;4984779;28;20283;-62
2023/05/22 00:39:37;;;;;;;7.27;3.10;;;;;;;;;;5010880;28;20263;-62
2023/05/22 00:42:04;;;;;;;6.33;2.60;;;;;;;;;;4976858;28;20701;-62
2023/05/22 00:47:31;;;;;;;7.07;3.30;;;;;;;;;;5010839;28;20192;-62
2023/05/22 00:49:58;;;;;;;7.03;3.07;;;;;;;;;;5010645;28;20239;-62
2023/05/22 00:52:25;;;;;;;9.53;3.33;;;;;;;;;;4976694;28;20223;-62
2023/05/22 00:54:52;;;;;;;8.67;3.90;;;;;;;;;;5010074;28;20231;-62
2023/05/22 00:57:18;;;;;;;10.50;4.63;;;;;;;;;;4976217;28;20232;-63
2023/05/22 00:59:45;;;;;;;7.13;3.43;;;;;;;;;;4996085;28;20658;-62
2023/05/22 01:02:15;;;;;;;4.83;3.03;;;;;;;;;;5042241;28;20217;-62
2023/05/22 01:04:47;;;;;;;5.77;3.40;;;;;;;;;;5032934;28;20186;-62
2023/05/22 01:07:15;;;;;;;5.50;3.47;;;;;;;;;;5016016;28;20252;-62
2023/05/22 01:09:42;;;;;;;6.07;3.30;;;;;;;;;;5031917;28;20191;-62
2023/05/22 01:12:17;;;;;;;6.63;3.10;;;;;;;;;;5049229;28;20675;-62
2023/05/22 01:15:16;;;;;;;7.17;3.40;;;;;;;;;;5049671;28;20211;-62
2023/05/22 01:17:51;;;;;;;7.77;3.50;;;;;;;;;;4969894;28;20231;-62
2023/05/22 01:20:30;;;;;;;9.87;4.20;;;;;;;;;;5029740;28;20190;-63
2023/05/22 01:22:59;;;;;;;6.67;3.80;;;;;;;;;;4995805;28;20229;-62
2023/05/22 01:25:28;;;;;;;9.40;3.90;;;;;;;;;;5029836;28;20591;-62
2023/05/22 01:28:10;;;;;;;10.50;3.60;;;;;;;;;;5029563;28;20195;-62
2023/05/22 01:30:58;;;;;;;5.83;3.57;;;;;;;;;;5012265;28;20245;-62
2023/05/22 01:33:25;;;;;;;6.40;2.73;;;;;;;;;;5011405;28;20295;-62
2023/05/22 01:35:55;;;;;;;8.73;3.50;;;;;;;;;;5029564;28;20187;-62
2023/05/22 01:38:21;;;;;;;6.10;3.30;;;;;;;;;;5028651;28;20263;-62
2023/05/22 01:40:48;;;;;;;7.30;3.57;;;;;;;;;;5028338;28;20571;-62
2023/05/22 02:15:40;;;;;;;5.70;3.53;;;;;;;;;;4774503;28;20221;-69
2023/05/22 02:18:11;;;;;;;5.23;3.27;;;;;;;;;;5008949;28;20671;-67
2023/05/22 02:20:38;;;;;;;8.47;3.80;;;;;;;;;;4976559;28;20204;-67
2023/05/22 02:23:05;;;;;;;5.13;3.23;;;;;;;;;;5009360;28;20251;-67
2023/05/22 02:25:32;;;;;;;4.70;3.20;;;;;;;;;;5009482;28;20196;-67
2023/05/22 02:27:59;;;;;;;6.17;3.40;;;;;;;;;;4980228;28;20291;-67
2023/05/22 02:30:25;;;;;;;5.47;3.40;;;;;;;;;;4972499;28;20208;-67
2023/05/22 02:32:56;;;;;;;7.20;3.20;;;;;;;;;;4972900;28;20228;-67
2023/05/22 02:35:23;;;;;;;7.50;3.53;;;;;;;;;;4990165;28;20212;-67
2023/05/22 02:37:50;;;;;;;6.47;2.80;;;;;;;;;;4988648;28;20205;-68
2023/05/22 02:40:17;;;;;;;4.87;2.90;;;;;;;;;;4956479;28;20283;-67
2023/05/22 02:42:44;;;;;;;5.07;3.57;;;;;;;;;;4972187;28;20195;-67
2023/05/22 02:45:11;;;;;;;4.17;2.80;;;;;;;;;;4984739;28;20291;-68
2023/05/22 02:47:37;;;;;;;6.93;3.13;;;;;;;;;;5009870;28;20184;-67
2023/05/22 02:50:05;;;;;;;5.87;3.27;;;;;;;;;;4991806;28;20289;-68
2023/05/22 02:52:33;;;;;;;7.10;3.17;;;;;;;;;;4994580;28;20600;-67
2023/05/22 02:55:04;;;;;;;5.10;3.07;;;;;;;;;;4995324;28;20250;-68
2023/05/22 02:57:31;;;;;;;7.87;3.50;;;;;;;;;;4995109;28;20203;-67
2023/05/22 02:59:58;;;;;;;8.13;3.20;;;;;;;;;;4995451;28;20294;-67
2023/05/22 03:02:27;;;;;;;7.10;3.20;;;;;;;;;;5013091;28;20571;-68
2023/05/22 03:04:54;;;;;;;6.27;3.40;;;;;;;;;;4975502;28;20211;-68
2023/05/22 03:07:20;;;;;;;8.30;3.43;;;;;;;;;;4975808;28;20185;-68
2023/05/22 03:09:47;;;;;;;7.90;3.50;;;;;;;;;;4991538;28;20195;-67
2023/05/22 03:12:13;;;;;;;9.70;3.87;;;;;;;;;;4975339;28;20201;-67
2023/05/22 03:14:40;;;;;;;8.33;3.80;;;;;;;;;;4991886;28;20227;-67
2023/05/22 03:17:07;;;;;;;10.53;3.70;;;;;;;;;;4988675;28;20227;-68
2023/05/22 03:19:34;;;;;;;10.37;3.13;;;;;;;;;;4995046;28;20196;-68
2023/05/22 03:22:00;;;;;;;8.40;3.70;;;;;;;;;;4978350;28;20228;-68
2023/05/22 03:24:28;;;;;;;8.37;3.33;;;;;;;;;;4994658;28;20602;-68
2023/05/22 03:26:55;;;;;;;12.03;4.30;;;;;;;;;;4994674;28;20200;-68
2023/05/22 03:29:32;;;;;;;11.07;3.50;;;;;;;;;;4994973;28;20242;-67
2023/05/22 03:31:58;;;;;;;6.97;3.43;;;;;;;;;;4994564;28;20218;-67
2023/05/22 03:34:26;;;;;;;7.33;3.20;;;;;;;;;;4994148;28;20690;-67
2023/05/22 03:36:53;;;;;;;8.33;3.80;;;;;;;;;;4994233;28;20188;-68
2023/05/22 03:39:20;;;;;;;10.70;4.13;;;;;;;;;;5029979;28;20184;-68
2023/05/22 03:42:02;;;;;;;8.47;3.80;;;;;;;;;;5013976;28;20203;-68
2023/05/22 03:44:28;;;;;;;9.53;3.60;;;;;;;;;;5014224;28;20278;-68
2023/05/22 03:46:55;;;;;;;9.43;3.13;;;;;;;;;;5013801;28;20666;-68
2023/05/22 03:49:22;;;;;;;7.33;3.33;;;;;;;;;;5031572;28;20184;-68
2023/05/22 03:51:49;;;;;;;9.60;3.83;;;;;;;;;;5013737;28;20254;-67
2023/05/22 03:54:15;;;;;;;6.73;3.63;;;;;;;;;;5013527;28;20613;-68
2023/05/22 03:56:42;;;;;;;9.90;3.77;;;;;;;;;;4994726;28;20184;-70
2023/05/22 03:59:10;;;;;;;6.30;3.67;;;;;;;;;;4995634;28;20202;-72
2023/05/22 04:01:38;;;;;;;9.60;4.40;;;;;;;;;;4990131;28;20200;-75
2023/05/22 04:04:04;;;;;;;6.90;3.57;;;;;;;;;;4991592;28;20220;-68
2023/05/22 04:06:32;;;;;;;7.43;3.60;;;;;;;;;;5008143;28;20188;-70
2023/05/22 04:08:59;;;;;;;10.17;3.50;;;;;;;;;;4994342;28;20219;-70
2023/05/22 04:12:03;;;;;;;6.10;3.40;;;;;;;;;;5011229;28;20614;-69
2023/05/22 04:14:29;;;;;;;9.43;3.90;;;;;;;;;;5028940;28;20300;-69
2023/05/22 04:16:56;;;;;;;11.73;3.50;;;;;;;;;;5013649;28;20232;-69
2023/05/22 04:19:26;;;;;;;9.27;3.90;;;;;;;;;;4978466;28;20821;-72
2023/05/22 04:21:56;;;;;;;12.77;3.67;;;;;;;;;;4975923;28;20207;-69
2023/05/22 04:24:24;;;;;;;12.47;4.00;;;;;;;;;;5003849;28;20194;-70
2023/05/22 04:26:51;;;;;;;12.17;3.97;;;;;;;;;;5008316;28;20199;-70
2023/05/22 04:29:18;;;;;;;9.13;4.20;;;;;;;;;;4997314;28;20550;-67
2023/05/22 04:31:45;;;;;;;7.63;3.87;;;;;;;;;;5026279;28;20587;-67
2023/05/22 04:34:13;;;;;;;7.77;3.57;;;;;;;;;;5001575;28;20194;-72
2023/05/22 04:36:43;;;;;;;7.13;3.90;;;;;;;;;;4997975;28;20299;-71
2023/05/22 04:39:12;;;;;;;9.53;3.33;;;;;;;;;;4981573;28;20201;-69
2023/05/22 04:41:40;;;;;;;8.50;3.83;;;;;;;;;;5024963;28;20306;-68
2023/05/22 04:44:07;;;;;;;6.80;3.70;;;;;;;;;;5022765;28;20250;-67
2023/05/22 04:46:34;;;;;;;9.50;3.50;;;;;;;;;;5019430;28;20192;-69
2023/05/22 04:49:03;;;;;;;6.73;3.33;;;;;;;;;;5024781;28;20233;-69
2023/05/22 04:51:31;;;;;;;6.77;3.60;;;;;;;;;;5008478;28;20195;-69
2023/05/22 04:53:57;;;;;;;9.73;4.23;;;;;;;;;;5024005;28;20280;-70
2023/05/22 04:56:26;;;;;;;7.77;3.80;;;;;;;;;;5001430;28;20222;-69
2023/05/22 04:59:04;;;;;;;12.20;4.00;;;;;;;;;;4998828;28;20225;-69
2023/05/22 05:01:33;;;;;;;8.83;3.50;;;;;;;;;;4998653;28;20617;-70
2023/05/22 05:04:01;;;;;;;8.20;3.20;;;;;;;;;;5002186;28;20200;-70
2023/05/22 05:06:29;;;;;;;11.27;3.70;;;;;;;;;;4973553;28;20251;-70
2023/05/22 05:09:01;;;;;;;10.03;3.70;;;;;;;;;;4983603;28;20286;-70
2023/05/22 05:11:33;;;;;;;10.37;3.30;;;;;;;;;;4991014;28;20242;-74
2023/05/22 05:14:01;;;;;;;7.53;3.40;;;;;;;;;;4992956;28;20199;-71
2023/05/22 05:16:27;;;;;;;11.67;3.13;;;;;;;;;;5016610;28;20302;-73
2023/05/22 05:18:58;;;;;;;7.97;3.67;;;;;;;;;;4990291;28;20196;-70
2023/05/22 05:21:28;;;;;;;6.90;3.30;;;;;;;;;;4999254;28;20602;-77
2023/05/22 05:23:58;;;;;;;4.17;2.90;;;;;;;;;;4994040;28;20253;-72
2023/05/22 05:26:26;;;;;;;10.07;3.20;;;;;;;;;;4979461;28;20188;-73
2023/05/22 05:28:55;;;;;;;5.97;3.20;;;;;;;;;;4981093;28;20614;-72
2023/05/22 05:31:26;;;;;;;5.43;3.10;;;;;;;;;;5004375;28;20196;-72
2023/05/22 05:34:09;;;;;;;8.23;2.90;;;;;;;;;;4992357;28;20201;-71
2023/05/22 05:36:56;;;;;;;5.27;3.23;;;;;;;;;;5009741;28;20199;-71
2023/05/22 05:39:24;;;;;;;10.87;3.17;;;;;;;;;;4998713;28;20200;-78
2023/05/22 05:41:51;;;;;;;7.87;3.30;;;;;;;;;;5006346;28;20192;-77
2023/05/22 05:44:18;;;;;;;7.77;3.37;;;;;;;;;;5011624;28;20193;-78
2023/05/22 05:46:45;;;;;;;7.20;3.40;;;;;;;;;;5011200;28;20195;-78
2023/05/22 05:49:14;;;;;;;6.93;3.83;;;;;;;;;;5010522;28;20195;-78
2023/05/22 05:51:41;;;;;;;15.90;4.30;;;;;;;;;;5007703;28;20581;-71
2023/05/22 05:54:09;;;;;;;7.50;3.33;;;;;;;;;;4991671;28;20206;-70
2023/05/22 05:56:39;;;;;;;9.70;4.00;;;;;;;;;;4992055;28;20222;-79
2023/05/22 05:59:06;;;;;;;6.47;3.37;;;;;;;;;;5007863;28;20195;-73
2023/05/22 06:01:37;;;;;;;8.03;3.80;;;;;;;;;;5026145;28;20191;-69
2023/05/22 06:04:10;;;;;;;6.50;3.67;;;;;;;;;;5007897;28;20196;-69
2023/05/22 06:06:41;;;;;;;8.37;3.43;;;;;;;;;;5008336;28;20280;-75
2023/05/22 06:09:09;;;;;;;9.20;3.10;;;;;;;;;;5027041;28;20192;-75
2023/05/22 06:12:00;;;;;;;7.67;3.67;;;;;;;;;;4987722;28;20325;-77
2023/05/22 06:14:27;;;;;;;5.07;3.10;;;;;;;;;;4996616;28;20266;-75
2023/05/22 06:16:54;;;;;;;9.80;3.20;;;;;;;;;;5000950;28;20242;-72
2023/05/22 06:19:23;;;;;;;6.63;3.00;;;;;;;;;;5025391;28;20291;-76
2023/05/22 06:21:50;;;;;;;5.47;3.10;;;;;;;;;;5025661;28;20198;-77
2023/05/22 06:24:20;;;;;;;10.90;3.03;;;;;;;;;;4993112;28;20211;-74
2023/05/22 06:26:46;;;;;;;6.50;2.47;;;;;;;;;;5007397;28;20965;-76
2023/05/22 06:29:13;;;;;;;5.63;2.60;;;;;;;;;;5025491;28;20179;-71
2023/05/22 06:31:40;;;;;;;4.60;2.40;;;;;;;;;;5012011;28;20219;-76
2023/05/22 06:34:07;;;;;;;8.13;2.20;;;;;;;;;;4981827;28;20220;-78
2023/05/22 06:36:34;;;;;;;4.90;2.30;;;;;;;;;;4993045;28;20224;-77
2023/05/22 06:39:02;;;;;;;5.77;2.07;;;;;;;;;;5008203;28;20247;-75
2023/05/22 06:41:52;;;;;;;4.80;2.23;;;;;;;;;;5004622;28;20303;-73
2023/05/22 06:44:20;;;;;;;3.63;2.20;;;;;;;;;;5008300;28;20196;-71
2023/05/22 06:46:52;;;;;;;4.27;2.00;;;;;;;;;;5011618;28;20195;-74
2023/05/22 06:49:22;;;;;;;3.03;1.90;;;;;;;;;;4996641;28;20210;-74
2023/05/22 06:51:52;;;;;;;5.20;2.20;;;;;;;;;;4996060;28;20625;-74
2023/05/22 06:54:20;;;;;;;3.80;2.10;;;;;;;;;;5010710;28;20767;-71
2023/05/22 06:56:50;;;;;;;5.57;2.00;;;;;;;;;;5011540;28;20269;-70
2023/05/22 06:59:17;;;;;;;4.70;2.60;;;;;;;;;;5015204;28;20196;-74
2023/05/22 07:02:09;;;;;;;6.43;2.33;;;;;;;;;;4985185;28;20203;-75
2023/05/22 07:05:05;;;;;;;5.47;2.33;;;;;;;;;;5025926;28;20203;-71
2023/05/22 07:07:50;;;;;;;4.10;2.10;;;;;;;;;;4995793;28;20291;-69
2023/05/22 07:10:17;;;;;;;3.53;2.40;;;;;;;;;;5011243;28;20235;-73
2023/05/22 07:12:44;;;;;;;4.30;2.00;;;;;;;;;;5006632;28;20325;-69
2023/05/22 07:15:13;;;;;;;3.33;2.17;;;;;;;;;;4995591;28;20235;-75
2023/05/22 07:17:46;;;;;;;3.67;2.00;;;;;;;;;;5011536;28;20227;-69
2023/05/22 07:20:14;;;;;;;4.87;2.17;;;;;;;;;;5013068;28;20206;-66
2023/05/22 07:22:46;;;;;;;4.30;1.80;;;;;;;;;;5011354;28;20213;-71
2023/05/22 07:25:14;;;;;;;4.10;2.07;;;;;;;;;;5012491;28;20195;-71
2023/05/22 07:27:42;;;;;;;3.97;2.10;;;;;;;;;;5010633;28;20941;-65
2023/05/22 07:30:10;;;;;;;3.43;2.20;;;;;;;;;;5012526;28;20199;-68
2023/05/22 07:32:38;;;;;;;3.43;1.90;;;;;;;;;;5012080;28;20194;-68
2023/05/22 07:35:06;;;;;;;3.07;2.10;;;;;;;;;;5011705;28;20234;-67
2023/05/22 07:37:34;;;;;;;3.33;2.00;;;;;;;;;;5011815;28;20204;-67
2023/05/22 07:40:04;;;;;;;3.20;2.00;;;;;;;;;;5009474;28;20192;-67
2023/05/22 07:42:32;;;;;;;2.93;1.60;;;;;;;;;;5009200;28;20575;-71
2023/05/22 07:45:02;;;;;;;3.17;1.90;;;;;;;;;;5008250;28;20195;-70
2023/05/22 07:47:31;;;;;;;2.30;1.73;;;;;;;;;;4995404;28;20199;-67
2023/05/22 07:50:04;;;;;;;3.10;1.67;;;;;;;;;;5011322;28;20685;-71
2023/05/22 07:52:34;;;;;;;4.80;2.13;;;;;;;;;;5011693;28;20261;-69
2023/05/22 07:55:03;;;;;;;3.50;1.80;;;;;;;;;;4975903;28;20196;-76
2023/05/22 07:57:31;;;;;;;3.17;1.53;;;;;;;;;;4984202;28;20315;-75
2023/05/22 08:00:12;;;;;;;5.30;1.97;;;;;;;;;;4988266;28;20938;-67
2023/05/22 08:02:39;;;;;;;1.83;1.30;;;;;;;;;;4990532;28;20259;-69
2023/05/22 08:05:07;;;;;;;3.37;1.60;;;;;;;;;;4980564;28;21156;-71
2023/05/22 08:07:34;;;;;;;4.20;1.60;;;;;;;;;;4987512;28;20255;-66
2023/05/22 08:10:02;;;;;;;4.00;1.30;;;;;;;;;;4991824;28;20188;-65
2023/05/22 08:12:28;;;;;;;2.90;1.60;;;;;;;;;;4991647;28;20538;-66
2023/05/22 08:14:55;;;;;;;1.77;1.30;;;;;;;;;;5009037;28;20192;-67
2023/05/22 08:17:22;;;;;;;2.10;1.20;;;;;;;;;;4991345;28;20256;-67
2023/05/22 08:19:49;;;;;;;2.47;1.60;;;;;;;;;;4971281;28;20189;-67
2023/05/22 08:22:16;;;;;;;2.90;1.70;;;;;;;;;;4970007;28;20194;-67
2023/05/22 08:24:43;;;;;;;3.03;1.50;;;;;;;;;;4969952;28;20549;-66
2023/05/22 08:27:10;;;;;;;1.80;1.30;;;;;;;;;;4969763;28;20570;-67
2023/05/22 08:29:37;;;;;;;2.93;1.50;;;;;;;;;;4969463;28;20200;-71
2023/05/22 08:32:04;;;;;;;3.57;1.40;;;;;;;;;;4969950;28;20549;-68
2023/05/22 08:34:31;;;;;;;2.73;1.40;;;;;;;;;;4984859;28;20191;-66
2023/05/22 08:36:58;;;;;;;3.00;1.40;;;;;;;;;;4989132;28;20212;-69
2023/05/22 08:39:28;;;;;;;6.03;1.30;;;;;;;;;;4974704;28;20189;-69
2023/05/22 08:41:54;;;;;;;4.37;1.63;;;;;;;;;;4969329;28;21066;-67
2023/05/22 08:44:21;;;;;;;5.93;1.50;;;;;;;;;;4983906;28;20205;-65
2023/05/22 08:46:55;;;;;;;4.30;1.40;;;;;;;;;;4971621;28;20199;-71
2023/05/22 08:49:22;;;;;;;2.50;1.40;;;;;;;;;;4967695;28;20201;-70
2023/05/22 08:51:51;;;;;;;2.97;1.77;;;;;;;;;;4964458;28;20268;-70
2023/05/22 08:54:18;;;;;;;3.93;1.80;;;;;;;;;;4983005;28;20588;-69
2023/05/22 08:56:45;;;;;;;3.13;1.40;;;;;;;;;;4971255;28;20545;-71
2023/05/22 08:59:22;;;;;;;3.53;1.50;;;;;;;;;;4959086;28;20207;-70
2023/05/22 09:01:51;;;;;;;6.87;1.77;;;;;;;;;;4935930;28;20177;-67
2023/05/22 09:04:21;;;;;;;2.37;1.40;;;;;;;;;;4982615;28;20201;-68
2023/05/22 09:06:49;;;;;;;2.73;1.50;;;;;;;;;;4960315;28;20291;-70
2023/05/22 09:09:16;;;;;;;3.23;1.30;;;;;;;;;;4951365;28;20186;-67
2023/05/22 09:11:43;;;;;;;3.00;1.50;;;;;;;;;;4968353;28;20194;-71
2023/05/22 09:14:09;;;;;;;2.10;1.30;;;;;;;;;;4963692;28;20575;-71
2023/05/22 09:16:46;;;;;;;3.50;1.60;;;;;;;;;;4965536;28;20830;-69
2023/05/22 09:19:13;;;;;;;3.10;1.50;;;;;;;;;;4987606;28;20243;-72
2023/05/22 09:21:40;;;;;;;1.93;1.30;;;;;;;;;;4988764;28;20200;-67
2023/05/22 09:24:09;;;;;;;1.43;1.23;;;;;;;;;;4988672;28;20243;-72
2023/05/22 09:26:37;;;;;;;1.57;1.33;;;;;;;;;;4968260;28;20273;-67
2023/05/22 09:29:05;;;;;;;5.30;1.30;;;;;;;;;;4981568;28;20298;-70
2023/05/22 09:31:34;;;;;;;2.73;1.37;;;;;;;;;;4972264;28;20192;-69
2023/05/22 09:34:01;;;;;;;2.47;1.50;;;;;;;;;;4970513;28;20272;-72
2023/05/22 09:36:32;;;;;;;3.60;1.30;;;;;;;;;;4955479;28;20232;-70
2023/05/22 09:38:59;;;;;;;2.33;1.10;;;;;;;;;;4977895;28;20221;-70
2023/05/22 09:41:26;;;;;;;2.73;1.40;;;;;;;;;;4952511;28;20260;-71
2023/05/22 09:43:53;;;;;;;1.77;1.30;;;;;;;;;;4945655;28;20196;-72
2023/05/22 09:46:20;;;;;;;1.63;1.30;;;;;;;;;;4962889;28;20600;-70
2023/05/22 09:48:52;;;;;;;4.00;1.57;;;;;;;;;;4942213;28;20194;-71
2023/05/22 09:51:25;;;;;;;5.53;1.50;;;;;;;;;;4987162;28;20199;-69
2023/05/22 09:53:53;;;;;;;3.40;1.50;;;;;;;;;;4967412;28;20193;-68
2023/05/22 09:56:22;;;;;;;5.27;1.30;;;;;;;;;;4970394;28;20623;-68
2023/05/22 09:59:06;;;;;;;1.97;1.17;;;;;;;;;;4972727;28;20193;-68
2023/05/22 10:01:34;;;;;;;3.57;1.30;;;;;;;;;;4989059;28;20307;-67
2023/05/22 10:04:00;;;;;;;4.47;1.50;;;;;;;;;;4982455;28;20221;-70
2023/05/22 10:06:27;;;;;;;4.20;1.53;;;;;;;;;;4968262;28;20204;-67
2023/05/22 10:09:01;;;;;;;2.00;1.30;;;;;;;;;;4976649;28;20232;-67
2023/05/22 10:11:28;;;;;;;2.20;1.40;;;;;;;;;;4963135;28;20201;-68
2023/05/22 10:13:57;;;;;;;5.17;1.30;;;;;;;;;;4965731;28;20259;-71
2023/05/22 10:16:25;;;;;;;5.80;1.60;;;;;;;;;;4973424;28;20221;-67
2023/05/22 10:18:51;;;;;;;3.53;1.27;;;;;;;;;;4974928;28;20204;-68
2023/05/22 10:21:18;;;;;;;3.00;1.10;;;;;;;;;;4975346;28;20216;-68
2023/05/22 10:23:45;;;;;;;3.50;1.30;;;;;;;;;;4984303;28;20663;-69
2023/05/22 10:26:13;;;;;;;2.13;1.37;;;;;;;;;;4986416;28;20204;-70
2023/05/22 10:28:41;;;;;;;2.63;1.40;;;;;;;;;;4998804;28;20216;-67
2023/05/22 10:31:15;;;;;;;2.40;1.37;;;;;;;;;;4992478;28;20292;-67
2023/05/22 10:34:01;;;;;;;1.47;1.13;;;;;;;;;;5007119;28;20199;-66
2023/05/22 10:36:33;;;;;;;4.10;1.50;;;;;;;;;;4994491;28;20211;-67
2023/05/22 10:39:00;;;;;;;3.50;1.10;;;;;;;;;;4992575;28;20196;-68
2023/05/22 10:41:27;;;;;;;5.67;1.40;;;;;;;;;;5012583;28;20192;-76
2023/05/22 10:43:56;;;;;;;2.60;1.33;;;;;;;;;;4999389;28;20221;-69
2023/05/22 10:46:23;;;;;;;2.77;1.40;;;;;;;;;;5007798;28;20211;-69
2023/05/22 10:48:51;;;;;;;3.20;1.13;;;;;;;;;;5002655;28;20307;-69
2023/05/22 10:51:19;;;;;;;1.30;1.20;;;;;;;;;;5009788;28;20226;-69
2023/05/22 10:53:54;;;;;;;2.07;1.30;;;;;;;;;;4993023;28;20298;-78
2023/05/22 10:56:21;;;;;;;4.20;1.33;;;;;;;;;;4994903;28;20206;-74
2023/05/22 10:58:55;;;;;;;3.47;1.20;;;;;;;;;;5011314;28;20695;-80
2023/05/22 11:01:26;;;;;;;2.50;1.30;;;;;;;;;;5011754;28;20192;-78
2023/05/22 11:04:03;;;;;;;5.30;1.47;;;;;;;;;;4979130;28;20210;-75
2023/05/22 11:06:41;;;;;;;5.83;1.47;;;;;;;;;;5011065;28;20189;-76
2023/05/22 11:09:20;;;;;;;3.60;1.43;;;;;;;;;;4988350;28;20212;-73
2023/05/22 11:12:08;;;;;;;1.73;1.40;;;;;;;;;;4997658;28;20197;-81
2023/05/22 11:14:35;;;;;;;1.67;1.30;;;;;;;;;;4973964;28;20276;-71
2023/05/22 11:17:04;;;;;;;2.73;1.33;;;;;;;;;;4989261;28;20235;-68
2023/05/22 11:19:31;;;;;;;1.80;1.40;;;;;;;;;;4977259;28;20283;-71
2023/05/22 11:22:01;;;;;;;1.67;1.30;;;;;;;;;;5004032;28;20192;-71
2023/05/22 11:24:32;;;;;;;4.73;1.43;;;;;;;;;;4992923;28;20200;-67
2023/05/22 11:27:01;;;;;;;1.70;1.37;;;;;;;;;;5010575;28;20191;-67
2023/05/22 11:29:29;;;;;;;2.70;1.37;;;;;;;;;;5000668;28;20227;-69
2023/05/22 11:31:56;;;;;;;2.80;1.50;;;;;;;;;;4991338;28;20180;-67
2023/05/22 11:34:23;;;;;;;2.87;1.60;;;;;;;;;;4990089;28;20205;-68
2023/05/22 11:36:51;;;;;;;2.00;1.30;;;;;;;;;;4973461;28;20225;-70
2023/05/22 11:39:18;;;;;;;3.00;1.53;;;;;;;;;;4991112;28;20208;-70
2023/05/22 11:41:47;;;;;;;3.17;1.30;;;;;;;;;;4991440;28;20292;-71
2023/05/22 11:44:16;;;;;;;4.20;1.67;;;;;;;;;;4976096;28;20189;-72
2023/05/22 11:46:43;;;;;;;2.30;1.50;;;;;;;;;;4975249;28;20281;-73
2023/05/22 11:49:13;;;;;;;2.83;1.50;;;;;;;;;;4975083;28;20189;-73
2023/05/22 11:51:40;;;;;;;2.20;1.30;;;;;;;;;;4962983;28;20244;-72
2023/05/22 11:54:06;;;;;;;3.10;1.67;;;;;;;;;;4958806;28;21052;-73
2023/05/22 11:56:35;;;;;;;2.77;1.43;;;;;;;;;;4975035;28;20620;-73
2023/05/22 11:59:01;;;;;;;3.13;1.70;;;;;;;;;;5004808;28;20200;-73
2023/05/22 12:01:28;;;;;;;3.70;1.50;;;;;;;;;;4992544;28;20184;-73
2023/05/22 12:03:55;;;;;;;3.17;1.50;;;;;;;;;;4991475;28;20223;-71
2023/05/22 12:06:22;;;;;;;2.60;1.40;;;;;;;;;;4991262;28;20247;-66
2023/05/22 12:08:50;;;;;;;2.27;1.63;;;;;;;;;;4991299;28;20193;-73
2023/05/22 12:11:17;;;;;;;2.30;1.57;;;;;;;;;;4973776;28;20288;-73
2023/05/22 12:13:50;;;;;;;2.27;1.60;;;;;;;;;;4973456;28;20208;-72
2023/05/22 12:16:18;;;;;;;3.03;1.80;;;;;;;;;;5000166;28;20718;-73
2023/05/22 12:18:45;;;;;;;3.53;1.50;;;;;;;;;;5010329;28;20192;-73
2023/05/22 12:21:12;;;;;;;6.40;1.90;;;;;;;;;;4993373;28;20197;-73
2023/05/22 12:23:46;;;;;;;4.07;1.73;;;;;;;;;;5003032;28;20193;-72
2023/05/22 12:26:13;;;;;;;3.00;1.50;;;;;;;;;;4991263;28;20215;-72
2023/05/22 12:28:39;;;;;;;4.53;2.00;;;;;;;;;;4999509;28;20255;-73
2023/05/22 12:31:06;;;;;;;2.03;1.50;;;;;;;;;;5011909;28;20539;-73
2023/05/22 12:33:33;;;;;;;4.10;1.70;;;;;;;;;;4997924;28;20538;-73
2023/05/22 12:36:01;;;;;;;4.60;1.70;;;;;;;;;;4970840;28;20667;-73
2023/05/22 12:38:29;;;;;;;2.40;1.60;;;;;;;;;;4991690;28;21046;-72
2023/05/22 12:40:59;;;;;;;9.93;2.00;;;;;;;;;;4967184;28;20615;-73
2023/05/22 12:43:26;;;;;;;4.07;1.47;;;;;;;;;;5002707;28;20990;-73
2023/05/22 12:45:53;;;;;;;3.20;1.40;;;;;;;;;;4988185;28;20232;-72
2023/05/22 12:48:19;;;;;;;3.27;1.70;;;;;;;;;;5000887;28;20192;-73
2023/05/22 12:50:46;;;;;;;4.47;1.77;;;;;;;;;;4991675;28;20199;-73
2023/05/22 12:53:13;;;;;;;3.27;1.57;;;;;;;;;;4992182;28;20226;-72
2023/05/22 12:55:42;;;;;;;2.87;1.80;;;;;;;;;;4990041;28;20195;-71
2023/05/22 12:58:08;;;;;;;2.00;1.40;;;;;;;;;;4990847;28;20246;-71
2023/05/22 13:00:35;;;;;;;2.27;1.70;;;;;;;;;;4975075;28;20725;-71
2023/05/22 13:03:04;;;;;;;2.87;1.60;;;;;;;;;;4991613;28;20594;-71
2023/05/22 13:05:31;;;;;;;4.53;1.80;;;;;;;;;;4991397;28;20190;-71
2023/05/22 13:07:57;;;;;;;3.57;1.67;;;;;;;;;;5008293;28;20187;-71
2023/05/22 13:10:29;;;;;;;2.00;1.70;;;;;;;;;;5008290;28;20200;-71
2023/05/22 13:12:56;;;;;;;2.40;1.70;;;;;;;;;;5001908;28;20206;-71
2023/05/22 13:15:22;;;;;;;2.23;1.80;;;;;;;;;;4974848;28;20224;-71
2023/05/22 13:17:50;;;;;;;3.13;1.60;;;;;;;;;;5008062;28;20317;-71
2023/05/22 13:20:17;;;;;;;3.77;1.50;;;;;;;;;;4991677;28;20192;-71
2023/05/22 13:22:44;;;;;;;3.77;1.80;;;;;;;;;;5007719;28;20299;-71
2023/05/22 13:25:12;;;;;;;3.70;1.50;;;;;;;;;;4990547;28;20223;-71
2023/05/22 13:27:38;;;;;;;4.53;1.80;;;;;;;;;;4974667;28;20200;-71
2023/05/22 13:30:06;;;;;;;3.13;1.70;;;;;;;;;;4996457;28;20194;-71
2023/05/22 13:32:33;;;;;;;4.57;1.80;;;;;;;;;;5008886;28;20191;-70
2023/05/22 13:35:00;;;;;;;4.10;1.33;;;;;;;;;;5008288;28;20189;-71
2023/05/22 13:37:27;;;;;;;2.93;1.70;;;;;;;;;;4990032;28;20212;-72
2023/05/22 13:39:54;;;;;;;2.63;1.70;;;;;;;;;;5002558;28;20272;-71
2023/05/22 13:42:20;;;;;;;2.70;1.50;;;;;;;;;;4994668;28;20205;-71
2023/05/22 13:44:47;;;;;;;4.60;1.80;;;;;;;;;;4982859;28;20200;-72
2023/05/22 13:47:14;;;;;;;4.27;1.70;;;;;;;;;;4999351;28;20281;-71
2023/05/22 13:49:41;;;;;;;1.80;1.47;;;;;;;;;;4990532;28;20554;-71
2023/05/22 13:52:08;;;;;;;2.90;1.60;;;;;;;;;;4990075;28;20253;-71
2023/05/22 13:54:35;;;;;;;3.43;1.90;;;;;;;;;;4990512;28;20644;-71
2023/05/22 13:57:02;;;;;;;3.80;1.60;;;;;;;;;;4989155;28;20223;-71
2023/05/22 13:59:28;;;;;;;3.67;1.60;;;;;;;;;;4990077;28;20191;-71
2023/05/22 14:01:55;;;;;;;10.03;2.30;;;;;;;;;;5005682;28;20192;-71
2023/05/22 14:04:22;;;;;;;11.80;2.47;;;;;;;;;;5007536;28;20192;-71
2023/05/22 14:06:49;;;;;;;2.30;1.63;;;;;;;;;;4990594;28;21062;-71
2023/05/22 14:09:16;;;;;;;3.27;1.50;;;;;;;;;;4990442;28;20199;-71
2023/05/22 14:11:42;;;;;;;5.67;1.50;;;;;;;;;;4990277;28;20192;-71
2023/05/22 14:14:09;;;;;;;3.53;1.30;;;;;;;;;;4989336;28;20215;-71
2023/05/22 14:16:39;;;;;;;4.50;1.60;;;;;;;;;;5007498;28;20227;-71
2023/05/22 14:19:06;;;;;;;3.30;1.50;;;;;;;;;;5007786;28;20204;-70
2023/05/22 14:21:33;;;;;;;3.40;1.63;;;;;;;;;;4990801;28;20196;-71
2023/05/22 14:24:01;;;;;;;10.20;2.43;;;;;;;;;;4990491;28;20192;-71
2023/05/22 14:26:28;;;;;;;2.87;1.63;;;;;;;;;;5007940;28;20249;-71
2023/05/22 14:28:55;;;;;;;3.07;1.50;;;;;;;;;;4971456;28;20209;-73
2023/05/22 14:31:23;;;;;;;3.10;1.63;;;;;;;;;;5006195;28;20247;-71
2023/05/22 14:33:50;;;;;;;3.13;1.70;;;;;;;;;;5007655;28;20602;-74
2023/05/22 14:36:17;;;;;;;3.30;1.63;;;;;;;;;;4996961;28;20280;-74
2023/05/22 14:38:43;;;;;;;4.80;1.50;;;;;;;;;;5006225;28;20220;-74
2023/05/22 14:41:10;;;;;;;4.57;1.87;;;;;;;;;;4999359;28;20282;-75
2023/05/22 14:43:37;;;;;;;2.50;1.43;;;;;;;;;;5007488;28;20187;-74
2023/05/22 14:46:04;;;;;;;2.50;1.50;;;;;;;;;;4981623;28;20228;-74
2023/05/22 14:48:31;;;;;;;2.80;1.30;;;;;;;;;;5009438;28;20197;-74
2023/05/22 14:50:59;;;;;;;3.70;1.77;;;;;;;;;;5011559;28;20198;-74
2023/05/22 14:53:25;;;;;;;3.37;1.60;;;;;;;;;;4998548;28;20192;-74
2023/05/22 14:55:52;;;;;;;3.17;1.77;;;;;;;;;;4992268;28;20292;-73
2023/05/22 14:58:19;;;;;;;5.53;1.80;;;;;;;;;;4992447;28;20250;-74
2023/05/22 15:00:46;;;;;;;7.13;1.80;;;;;;;;;;4994111;28;21073;-73
2023/05/22 15:03:13;;;;;;;4.00;1.47;;;;;;;;;;4992634;28;20287;-73
2023/05/22 15:05:39;;;;;;;3.77;1.63;;;;;;;;;;4991599;28;20296;-74
2023/05/22 15:08:07;;;;;;;3.43;1.70;;;;;;;;;;4992526;28;20807;-74
2023/05/22 15:10:35;;;;;;;3.33;1.73;;;;;;;;;;4992497;28;20193;-73
2023/05/22 15:13:01;;;;;;;5.50;1.83;;;;;;;;;;4991136;28;20186;-72
2023/05/22 15:15:29;;;;;;;5.57;1.77;;;;;;;;;;4994876;28;20197;-73
2023/05/22 15:17:59;;;;;;;6.60;1.97;;;;;;;;;;5011678;28;20303;-73
2023/05/22 15:20:26;;;;;;;6.07;1.70;;;;;;;;;;5011764;28;20197;-72
2023/05/22 15:22:53;;;;;;;1.67;1.37;;;;;;;;;;5011586;28;20215;-72
2023/05/22 15:25:20;;;;;;;2.77;1.50;;;;;;;;;;5011023;28;20208;-71
2023/05/22 15:27:46;;;;;;;3.53;1.67;;;;;;;;;;4974655;28;20296;-72